Time;durP1;ratioP1;P1;durP2;ratioP2;P2;SDS_P1;SDS_P2;PMS_P1;PMS_P2;Temp;Humidity;BMP_temperature;BMP_pressure;BME280_temperature;BME280_humidity;BME280_pressure;Samples;Min_cycle;Max_cycle;Signal;HPM_P1;HPM_P2
2023/10/16 08:11:58;;;;;;;160.98;10.00;;;;;;;;;;4903393;29;20047;-57
2023/10/16 08:14:27;;;;;;;71.60;6.28;;;;;;;;;;4905243;29;20020;-57
2023/10/16 08:17:14;;;;;;;166.68;11.38;;;;;;;;;;4902806;29;20580;-57
2023/10/16 08:19:39;;;;;;;114.78;9.05;;;;;;;;;;4904785;29;20546;-57
2023/10/16 08:22:07;;;;;;;134.82;11.18;;;;;;;;;;4903768;29;20067;-58
2023/10/16 08:24:34;;;;;;;86.50;6.80;;;;;;;;;;4904606;29;20032;-57
2023/10/16 08:27:11;;;;;;;138.18;10.63;;;;;;;;;;4902437;29;20036;-59
2023/10/16 08:29:51;;;;;;;80.93;6.68;;;;;;;;;;4904268;29;20028;-57
2023/10/16 08:35:00;;;;;;;120.97;10.07;;;;;;;;;;4903400;29;20032;-58
2023/10/16 08:37:25;;;;;;;64.43;5.33;;;;;;;;;;4904790;29;20063;-58
2023/10/16 08:39:50;;;;;;;138.60;9.73;;;;;;;;;;4903270;29;20273;-58
2023/10/16 08:42:18;;;;;;;75.67;5.97;;;;;;;;;;4904537;29;20264;-58
2023/10/16 08:45:14;;;;;;;109.70;8.35;;;;;;;;;;4904314;29;20947;-57
2023/10/16 08:47:42;;;;;;;84.82;7.38;;;;;;;;;;4903853;29;20404;-57
2023/10/16 08:50:17;;;;;;;96.20;8.40;;;;;;;;;;4902701;29;20460;-58
2023/10/16 08:52:49;;;;;;;88.40;7.47;;;;;;;;;;4906261;29;20048;-57
2023/10/16 08:55:14;;;;;;;104.57;8.38;;;;;;;;;;4906971;29;20516;-58
2023/10/16 08:57:40;;;;;;;102.72;7.93;;;;;;;;;;4908069;29;20056;-57
2023/10/16 09:00:11;;;;;;;69.68;7.28;;;;;;;;;;4907141;29;20523;-58
2023/10/16 09:02:38;;;;;;;95.82;8.13;;;;;;;;;;4906753;29;20040;-58
2023/10/16 09:05:08;;;;;;;113.88;9.02;;;;;;;;;;4906158;29;20031;-57
2023/10/16 09:07:34;;;;;;;112.95;8.60;;;;;;;;;;4907398;29;20107;-58
2023/10/16 09:10:02;;;;;;;147.43;10.00;;;;;;;;;;4905608;29;20106;-58
2023/10/16 09:12:27;;;;;;;81.57;7.05;;;;;;;;;;4907113;29;20527;-59
2023/10/16 09:14:53;;;;;;;152.70;9.93;;;;;;;;;;4904959;29;20059;-58
2023/10/16 09:17:27;;;;;;;68.65;7.32;;;;;;;;;;4907370;29;20336;-58
2023/10/16 09:19:53;;;;;;;132.90;12.32;;;;;;;;;;4906890;29;20059;-57
2023/10/16 09:22:20;;;;;;;66.72;7.50;;;;;;;;;;4906611;29;20032;-58
2023/10/16 09:24:51;;;;;;;90.70;7.88;;;;;;;;;;4907424;29;20043;-56
2023/10/16 09:27:17;;;;;;;117.20;8.68;;;;;;;;;;4906304;29;20594;-58
2023/10/16 09:29:53;;;;;;;90.20;8.73;;;;;;;;;;4906996;29;20062;-58
2023/10/16 09:32:21;;;;;;;79.28;7.97;;;;;;;;;;4906505;29;20088;-59
2023/10/16 09:34:50;;;;;;;115.40;9.07;;;;;;;;;;4906755;29;20436;-56
2023/10/16 09:37:16;;;;;;;59.90;7.10;;;;;;;;;;4906680;29;20040;-58
2023/10/16 09:39:46;;;;;;;132.68;41.92;;;;;;;;;;4906225;29;20024;-58
2023/10/16 09:42:14;;;;;;;80.80;8.02;;;;;;;;;;4906894;29;20087;-56
2023/10/16 09:44:56;;;;;;;77.63;6.85;;;;;;;;;;4906828;29;20051;-58
2023/10/16 09:47:26;;;;;;;50.13;8.07;;;;;;;;;;4906676;29;20132;-57
2023/10/16 09:49:58;;;;;;;63.17;6.43;;;;;;;;;;4905711;29;20025;-58
2023/10/16 09:52:24;;;;;;;82.65;8.13;;;;;;;;;;4905887;29;20036;-59
2023/10/16 09:54:51;;;;;;;85.70;8.35;;;;;;;;;;4904682;29;20039;-56
2023/10/16 09:57:22;;;;;;;67.32;7.05;;;;;;;;;;4905389;29;20039;-56
2023/10/16 09:59:54;;;;;;;138.73;106.60;;;;;;;;;;4906171;29;20118;-58
2023/10/16 10:02:21;;;;;;;86.32;14.63;;;;;;;;;;4905815;29;20281;-58
2023/10/16 10:04:59;;;;;;;117.43;8.80;;;;;;;;;;4903698;29;20043;-57
2023/10/16 10:07:49;;;;;;;31.52;5.03;;;;;;;;;;4906292;29;20544;-58
2023/10/16 10:13:08;;;;;;;140.43;11.10;;;;;;;;;;4905156;29;20491;-58
2023/10/16 10:15:37;;;;;;;79.55;6.53;;;;;;;;;;4905510;29;20050;-58
2023/10/16 10:18:31;;;;;;;111.28;16.90;;;;;;;;;;4904730;29;20020;-58
2023/10/16 10:20:58;;;;;;;99.85;37.22;;;;;;;;;;4905990;29;20032;-58
2023/10/16 10:23:24;;;;;;;79.03;6.10;;;;;;;;;;4906003;29;20028;-58
2023/10/16 10:25:53;;;;;;;74.68;7.90;;;;;;;;;;4905006;29;20080;-58
2023/10/16 10:28:37;;;;;;;67.25;8.45;;;;;;;;;;4905228;29;20020;-58
2023/10/16 10:31:04;;;;;;;94.20;6.68;;;;;;;;;;4904932;29;20036;-59
2023/10/16 10:33:43;;;;;;;81.10;7.63;;;;;;;;;;4906441;29;20063;-59
2023/10/16 10:36:30;;;;;;;137.80;9.35;;;;;;;;;;4904441;29;20028;-57
2023/10/16 10:39:20;;;;;;;139.73;29.58;;;;;;;;;;4905306;29;20024;-57
2023/10/16 10:42:05;;;;;;;89.65;6.15;;;;;;;;;;4905489;29;20111;-58
2023/10/16 10:44:31;;;;;;;102.88;39.67;;;;;;;;;;4905184;29;20068;-58
2023/10/16 10:47:00;;;;;;;147.23;9.53;;;;;;;;;;4902878;29;20060;-58
2023/10/16 10:49:35;;;;;;;87.05;5.75;;;;;;;;;;4905323;29;20479;-58
2023/10/16 10:52:01;;;;;;;136.00;7.93;;;;;;;;;;4904339;29;20047;-58
2023/10/16 10:54:26;;;;;;;90.05;5.57;;;;;;;;;;4904430;29;20484;-58
2023/10/16 10:56:53;;;;;;;62.00;5.25;;;;;;;;;;4903048;29;20120;-57
2023/10/16 10:59:40;;;;;;;80.07;6.97;;;;;;;;;;4905977;29;20488;-58
2023/10/16 11:02:22;;;;;;;199.18;107.22;;;;;;;;;;4903897;29;20638;-58
2023/10/16 11:05:22;;;;;;;115.63;6.57;;;;;;;;;;4904592;29;20523;-58
2023/10/16 11:07:45;;;;;;;162.75;110.20;;;;;;;;;;4904593;29;20420;-58
2023/10/16 11:10:12;;;;;;;162.65;23.15;;;;;;;;;;4902435;29;20034;-58
2023/10/16 11:12:38;;;;;;;85.28;15.02;;;;;;;;;;4904739;29;20064;-59
2023/10/16 11:15:09;;;;;;;175.63;9.57;;;;;;;;;;4902354;29;20066;-58
2023/10/16 11:17:37;;;;;;;78.00;4.97;;;;;;;;;;4905176;29;20280;-58
2023/10/16 11:22:43;;;;;;;91.63;5.38;;;;;;;;;;4904666;29;20580;-58
2023/10/16 11:25:09;;;;;;;309.00;190.38;;;;;;;;;;4902654;29;20118;-59
2023/10/16 11:27:34;;;;;;;115.97;6.00;;;;;;;;;;4904060;29;20160;-58
2023/10/16 11:30:00;;;;;;;168.93;40.23;;;;;;;;;;4903637;29;20107;-57
2023/10/16 11:32:26;;;;;;;60.63;4.32;;;;;;;;;;4904188;29;20606;-58
2023/10/16 11:34:59;;;;;;;96.40;5.00;;;;;;;;;;4902586;29;20023;-58
2023/10/16 11:37:25;;;;;;;52.97;3.35;;;;;;;;;;4904775;29;20118;-58
2023/10/16 11:39:50;;;;;;;89.25;5.10;;;;;;;;;;4904662;29;20111;-56
2023/10/16 11:42:16;;;;;;;76.32;4.57;;;;;;;;;;4904166;29;20424;-58
2023/10/16 11:44:42;;;;;;;88.50;4.97;;;;;;;;;;4904463;29;20036;-58
2023/10/16 11:47:16;;;;;;;151.70;7.97;;;;;;;;;;4902593;29;20050;-58
2023/10/16 11:49:51;;;;;;;98.30;5.22;;;;;;;;;;4904315;29;20095;-57
2023/10/16 11:54:48;;;;;;;74.50;4.38;;;;;;;;;;4903837;29;20104;-57
2023/10/16 11:57:14;;;;;;;117.82;6.13;;;;;;;;;;4903336;29;20040;-57
2023/10/16 11:59:40;;;;;;;127.85;5.85;;;;;;;;;;4904673;29;20741;-57
2023/10/16 12:02:12;;;;;;;138.77;7.10;;;;;;;;;;4901740;29;20036;-58
2023/10/16 12:04:40;;;;;;;115.78;5.35;;;;;;;;;;4903786;29;20419;-58
2023/10/16 12:07:07;;;;;;;137.90;6.55;;;;;;;;;;4903362;29;20270;-57
2023/10/16 12:09:42;;;;;;;97.05;4.45;;;;;;;;;;4903740;29;20115;-58
2023/10/16 12:12:08;;;;;;;153.95;7.45;;;;;;;;;;4902432;29;20044;-57
2023/10/16 12:14:37;;;;;;;70.38;3.72;;;;;;;;;;4903953;29;20028;-58
2023/10/16 12:17:06;;;;;;;183.70;8.77;;;;;;;;;;4902966;29;20025;-57
2023/10/16 12:19:31;;;;;;;92.75;4.60;;;;;;;;;;4904704;29;20020;-58
2023/10/16 12:21:56;;;;;;;63.80;3.53;;;;;;;;;;4904875;29;20042;-57
2023/10/16 12:24:22;;;;;;;157.90;31.90;;;;;;;;;;4902233;29;20031;-58
2023/10/16 12:26:48;;;;;;;66.28;3.60;;;;;;;;;;4905028;29;20280;-58
2023/10/16 12:29:13;;;;;;;185.70;8.40;;;;;;;;;;4905458;29;20016;-58
2023/10/16 12:31:40;;;;;;;113.68;5.38;;;;;;;;;;4906858;29;20123;-59
2023/10/16 12:34:07;;;;;;;140.98;6.97;;;;;;;;;;4906114;29;20020;-58
2023/10/16 12:36:33;;;;;;;62.95;3.55;;;;;;;;;;4907828;29;20087;-58
2023/10/16 12:38:59;;;;;;;111.20;13.20;;;;;;;;;;4906634;29;20090;-57
2023/10/16 12:41:24;;;;;;;67.53;3.70;;;;;;;;;;4905813;29;20784;-57
2023/10/16 12:43:51;;;;;;;95.72;4.78;;;;;;;;;;4908040;29;20036;-58
2023/10/16 12:46:17;;;;;;;363.70;112.68;;;;;;;;;;4903826;29;20415;-58
2023/10/16 12:48:44;;;;;;;100.68;12.25;;;;;;;;;;4907788;29;20468;-58
2023/10/16 12:51:10;;;;;;;141.35;7.00;;;;;;;;;;4905590;29;20521;-58
2023/10/16 12:53:36;;;;;;;124.88;5.60;;;;;;;;;;4907734;29;20059;-57
2023/10/16 12:56:05;;;;;;;94.25;4.32;;;;;;;;;;4906321;29;20064;-58
2023/10/16 12:58:30;;;;;;;70.80;3.67;;;;;;;;;;4907769;29;20035;-57
2023/10/16 13:00:58;;;;;;;62.00;3.38;;;;;;;;;;4906036;29;20206;-57
2023/10/16 13:03:23;;;;;;;73.68;3.83;;;;;;;;;;4904945;29;20024;-58
2023/10/16 13:05:49;;;;;;;87.40;4.18;;;;;;;;;;4903846;29;20107;-57
2023/10/16 13:08:17;;;;;;;179.82;8.25;;;;;;;;;;4902618;29;20028;-58
2023/10/16 13:10:42;;;;;;;107.65;4.57;;;;;;;;;;4904229;29;20048;-57
2023/10/16 13:13:09;;;;;;;207.07;8.80;;;;;;;;;;4904145;29;20494;-57
2023/10/16 13:15:34;;;;;;;120.88;5.13;;;;;;;;;;4904531;29;20036;-59
2023/10/16 13:18:00;;;;;;;76.20;3.77;;;;;;;;;;4905785;29;20451;-56
2023/10/16 13:20:27;;;;;;;86.57;4.13;;;;;;;;;;4906437;29;20446;-58
2023/10/16 13:22:53;;;;;;;68.80;3.75;;;;;;;;;;4905057;29;20028;-57
2023/10/16 13:25:19;;;;;;;130.90;6.10;;;;;;;;;;4904258;29;20028;-57
2023/10/16 13:27:44;;;;;;;128.30;5.45;;;;;;;;;;4906626;29;20016;-58
2023/10/16 13:30:11;;;;;;;158.95;7.60;;;;;;;;;;4904359;29;20020;-58
2023/10/16 13:32:40;;;;;;;94.47;4.55;;;;;;;;;;4906259;29;20024;-57
2023/10/16 13:35:12;;;;;;;185.45;21.27;;;;;;;;;;4904711;29;20087;-58
2023/10/16 13:37:38;;;;;;;85.30;4.15;;;;;;;;;;4905933;29;20079;-56
2023/10/16 13:40:04;;;;;;;86.55;4.43;;;;;;;;;;4904802;29;20036;-58
2023/10/16 13:42:29;;;;;;;107.97;5.07;;;;;;;;;;4903407;28;20148;-57
2023/10/16 13:44:54;;;;;;;85.53;4.20;;;;;;;;;;4904388;29;20511;-58
2023/10/16 13:47:19;;;;;;;177.40;8.17;;;;;;;;;;4902901;29;20044;-60
2023/10/16 13:49:46;;;;;;;113.88;5.05;;;;;;;;;;4903431;29;20280;-57
2023/10/16 13:52:11;;;;;;;175.00;8.10;;;;;;;;;;4904220;29;20028;-58
2023/10/16 13:54:40;;;;;;;136.27;5.70;;;;;;;;;;4902832;29;20020;-57
2023/10/16 13:57:07;;;;;;;103.43;5.13;;;;;;;;;;4903585;29;20048;-58
2023/10/16 13:59:33;;;;;;;108.38;5.07;;;;;;;;;;4904670;29;20484;-57
2023/10/16 14:02:01;;;;;;;91.55;4.47;;;;;;;;;;4905692;29;20682;-57
2023/10/16 14:04:32;;;;;;;69.53;3.78;;;;;;;;;;4904181;29;20024;-57
2023/10/16 14:06:58;;;;;;;87.87;4.53;;;;;;;;;;4905750;29;20127;-58
2023/10/16 14:09:32;;;;;;;112.75;5.32;;;;;;;;;;4903214;29;20128;-58
2023/10/16 14:12:01;;;;;;;70.35;3.75;;;;;;;;;;4905506;29;20119;-57
2023/10/16 14:14:28;;;;;;;71.57;3.75;;;;;;;;;;4904834;29;20147;-57
2023/10/16 14:17:03;;;;;;;90.45;25.05;;;;;;;;;;4905280;29;20036;-59
2023/10/16 14:19:29;;;;;;;114.22;5.40;;;;;;;;;;4905367;29;20483;-58
2023/10/16 14:21:55;;;;;;;99.07;4.65;;;;;;;;;;4904616;29;20048;-58
2023/10/16 14:24:24;;;;;;;158.15;7.40;;;;;;;;;;4904111;29;20042;-57
2023/10/16 14:26:55;;;;;;;94.20;4.28;;;;;;;;;;4904016;29;20040;-57
2023/10/16 14:29:20;;;;;;;160.85;7.60;;;;;;;;;;4903291;29;20031;-58
2023/10/16 14:31:48;;;;;;;78.25;3.90;;;;;;;;;;4899861;29;20032;-58
2023/10/16 14:34:18;;;;;;;170.57;9.88;;;;;;;;;;4902289;29;20164;-58
2023/10/16 14:36:46;;;;;;;127.00;42.63;;;;;;;;;;4904399;29;20032;-57
2023/10/16 14:39:11;;;;;;;188.95;8.48;;;;;;;;;;4903751;29;20354;-57
2023/10/16 14:41:37;;;;;;;102.57;8.32;;;;;;;;;;4904247;29;20559;-58
2023/10/16 14:44:04;;;;;;;109.13;5.18;;;;;;;;;;4905054;29;20016;-58
2023/10/16 14:46:30;;;;;;;90.22;4.40;;;;;;;;;;4902538;29;20035;-58
2023/10/16 14:48:56;;;;;;;78.40;4.15;;;;;;;;;;4902670;29;20020;-57
2023/10/16 14:51:22;;;;;;;205.57;9.48;;;;;;;;;;4901692;29;20790;-57
2023/10/16 14:53:50;;;;;;;198.25;18.27;;;;;;;;;;4902860;29;20112;-57
2023/10/16 14:56:18;;;;;;;146.35;6.10;;;;;;;;;;4901970;29;20178;-56
2023/10/16 14:58:44;;;;;;;122.22;5.68;;;;;;;;;;4902468;29;20068;-58
2023/10/16 15:01:15;;;;;;;142.73;6.70;;;;;;;;;;4901576;29;20409;-57
2023/10/16 15:03:41;;;;;;;113.68;5.22;;;;;;;;;;4902009;29;20031;-57
2023/10/16 15:06:08;;;;;;;114.47;5.25;;;;;;;;;;4903469;29;20032;-58
2023/10/16 15:08:34;;;;;;;102.82;4.68;;;;;;;;;;4902848;29;20480;-56
2023/10/16 15:10:59;;;;;;;94.15;4.25;;;;;;;;;;4903099;29;20099;-57
2023/10/16 15:13:27;;;;;;;155.18;10.88;;;;;;;;;;4902503;29;20026;-58
2023/10/16 15:15:52;;;;;;;84.72;4.30;;;;;;;;;;4903601;29;20045;-57
2023/10/16 15:18:18;;;;;;;200.37;9.23;;;;;;;;;;4902631;29;20091;-56
2023/10/16 15:20:44;;;;;;;130.15;5.65;;;;;;;;;;4903118;29;20279;-57
2023/10/16 15:23:11;;;;;;;185.35;38.17;;;;;;;;;;4901567;29;20078;-58
2023/10/16 15:25:37;;;;;;;101.75;4.97;;;;;;;;;;4901306;29;20511;-56
2023/10/16 15:28:03;;;;;;;110.68;5.07;;;;;;;;;;4902211;29;20062;-56
2023/10/16 15:30:28;;;;;;;74.38;3.72;;;;;;;;;;4901416;29;20436;-57
2023/10/16 15:32:53;;;;;;;118.65;5.43;;;;;;;;;;4903866;29;20040;-55
2023/10/16 15:35:20;;;;;;;176.13;8.10;;;;;;;;;;4900766;29;20310;-56
2023/10/16 15:37:45;;;;;;;112.03;5.13;;;;;;;;;;4903176;29;20036;-58
2023/10/16 15:40:17;;;;;;;116.72;5.43;;;;;;;;;;4900954;29;20024;-57
2023/10/16 15:42:42;;;;;;;92.95;4.32;;;;;;;;;;4903334;29;20412;-56
2023/10/16 15:45:07;;;;;;;109.20;5.25;;;;;;;;;;4900566;29;20519;-56
2023/10/16 15:47:33;;;;;;;118.18;5.43;;;;;;;;;;4900712;29;20464;-56
2023/10/16 15:49:58;;;;;;;117.47;5.43;;;;;;;;;;4902109;29;20079;-55
2023/10/16 15:52:23;;;;;;;142.02;7.03;;;;;;;;;;4902667;29;20436;-55
2023/10/16 15:54:49;;;;;;;137.95;6.13;;;;;;;;;;4902183;29;20464;-55
2023/10/16 15:57:14;;;;;;;227.27;9.48;;;;;;;;;;4899598;29;20177;-56
2023/10/16 15:59:39;;;;;;;238.95;9.00;;;;;;;;;;4891704;29;20039;-57
2023/10/16 16:02:05;;;;;;;155.50;6.28;;;;;;;;;;4900397;29;20396;-57
2023/10/16 16:04:30;;;;;;;188.85;7.60;;;;;;;;;;4899852;29;20034;-55
2023/10/16 16:06:57;;;;;;;178.18;7.00;;;;;;;;;;4898902;29;20091;-56
2023/10/16 16:09:25;;;;;;;222.82;9.70;;;;;;;;;;4897809;29;20188;-56
2023/10/16 16:11:52;;;;;;;123.20;5.18;;;;;;;;;;4899292;29;20099;-57
2023/10/16 16:14:17;;;;;;;149.30;6.68;;;;;;;;;;4900003;29;20131;-57
2023/10/16 16:16:42;;;;;;;111.43;9.03;;;;;;;;;;4900667;29;20520;-58
2023/10/16 16:19:08;;;;;;;158.32;6.22;;;;;;;;;;4900039;29;20907;-56
2023/10/16 16:21:34;;;;;;;110.25;4.90;;;;;;;;;;4898150;29;20052;-56
2023/10/16 16:23:59;;;;;;;135.15;5.65;;;;;;;;;;4900392;29;20031;-58
2023/10/16 16:26:25;;;;;;;258.58;10.88;;;;;;;;;;4898320;29;20020;-59
2023/10/16 16:28:50;;;;;;;203.15;7.38;;;;;;;;;;4897857;29;20074;-56
2023/10/16 16:31:15;;;;;;;207.73;7.65;;;;;;;;;;4898720;29;20047;-58
2023/10/16 16:33:41;;;;;;;212.02;8.00;;;;;;;;;;4900539;29;20024;-57
2023/10/16 16:36:09;;;;;;;151.20;6.13;;;;;;;;;;4900282;29;20714;-57
2023/10/16 16:38:35;;;;;;;178.35;6.68;;;;;;;;;;4899491;29;20075;-56
2023/10/16 16:41:00;;;;;;;92.05;4.53;;;;;;;;;;4899391;29;20040;-57
2023/10/16 16:43:25;;;;;;;191.45;7.82;;;;;;;;;;4899115;29;20043;-57
2023/10/16 16:45:50;;;;;;;125.68;5.43;;;;;;;;;;4898792;29;20040;-56
2023/10/16 16:48:16;;;;;;;187.10;7.55;;;;;;;;;;4898306;29;20051;-57
2023/10/16 16:50:42;;;;;;;155.57;6.32;;;;;;;;;;4899185;29;20416;-58
2023/10/16 16:53:07;;;;;;;178.20;6.90;;;;;;;;;;4900098;29;20070;-58
2023/10/16 16:55:34;;;;;;;109.28;4.82;;;;;;;;;;4897662;29;20284;-55
2023/10/16 16:58:00;;;;;;;154.32;6.15;;;;;;;;;;4900485;29;20024;-58
2023/10/16 17:00:28;;;;;;;353.70;13.70;;;;;;;;;;4896374;29;20020;-58
2023/10/16 17:02:55;;;;;;;133.35;5.72;;;;;;;;;;4897924;29;20032;-57
2023/10/16 17:05:21;;;;;;;234.80;9.15;;;;;;;;;;4898029;29;20024;-57
2023/10/16 17:07:46;;;;;;;183.30;7.55;;;;;;;;;;4899379;29;20008;-55
2023/10/16 17:10:13;;;;;;;133.85;5.75;;;;;;;;;;4899094;29;20841;-58
2023/10/16 17:12:40;;;;;;;141.52;5.88;;;;;;;;;;4898004;29;20036;-56
2023/10/16 17:15:11;;;;;;;170.40;6.97;;;;;;;;;;4900188;29;20483;-58
2023/10/16 17:17:37;;;;;;;164.13;6.80;;;;;;;;;;4902106;29;20028;-57
2023/10/16 17:20:05;;;;;;;217.02;8.40;;;;;;;;;;4903015;29;20096;-58
2023/10/16 17:22:31;;;;;;;247.43;10.52;;;;;;;;;;4902087;29;20061;-58
2023/10/16 17:24:56;;;;;;;148.93;6.70;;;;;;;;;;4901938;29;20028;-57
2023/10/16 17:27:21;;;;;;;259.40;10.88;;;;;;;;;;4894520;29;20040;-57
2023/10/16 17:29:46;;;;;;;132.88;5.72;;;;;;;;;;4902204;29;20051;-58
2023/10/16 17:32:12;;;;;;;133.82;5.72;;;;;;;;;;4903441;29;20083;-59
2023/10/16 17:34:38;;;;;;;167.23;15.50;;;;;;;;;;4901306;29;20107;-56
2023/10/16 17:37:06;;;;;;;85.32;4.47;;;;;;;;;;4903871;29;20043;-56
2023/10/16 17:39:31;;;;;;;249.90;10.15;;;;;;;;;;4900593;29;20032;-57
2023/10/16 17:41:57;;;;;;;181.02;7.53;;;;;;;;;;4902947;29;20032;-58
2023/10/16 17:44:22;;;;;;;243.10;10.23;;;;;;;;;;4901478;29;20750;-57
2023/10/16 17:46:47;;;;;;;192.20;7.78;;;;;;;;;;4901655;29;20865;-56
2023/10/16 17:49:13;;;;;;;186.13;7.43;;;;;;;;;;4903730;29;20023;-56
2023/10/16 17:51:38;;;;;;;155.73;6.90;;;;;;;;;;4902000;29;20296;-57
2023/10/16 17:54:08;;;;;;;201.20;8.45;;;;;;;;;;4902786;29;20055;-56
2023/10/16 17:56:33;;;;;;;217.32;9.80;;;;;;;;;;4901454;29;20046;-55
2023/10/16 17:58:58;;;;;;;92.32;5.13;;;;;;;;;;4904061;29;20028;-57
2023/10/16 18:01:27;;;;;;;205.05;9.10;;;;;;;;;;4899282;29;20051;-55
2023/10/16 18:03:52;;;;;;;150.65;6.88;;;;;;;;;;4901899;29;20063;-54
2023/10/16 18:06:17;;;;;;;116.13;5.93;;;;;;;;;;4901307;29;20032;-54
2023/10/16 18:08:43;;;;;;;186.73;8.10;;;;;;;;;;4903312;29;20288;-56
2023/10/16 18:11:13;;;;;;;180.90;7.85;;;;;;;;;;4902869;29;20139;-54
2023/10/16 18:13:41;;;;;;;168.98;7.78;;;;;;;;;;4902309;29;20036;-57
2023/10/16 18:16:06;;;;;;;174.13;7.93;;;;;;;;;;4902477;29;20059;-56
2023/10/16 18:18:33;;;;;;;217.23;9.73;;;;;;;;;;4895883;29;20668;-56
2023/10/16 18:21:00;;;;;;;103.18;5.88;;;;;;;;;;4900254;29;20368;-58
2023/10/16 18:23:26;;;;;;;206.27;9.25;;;;;;;;;;4901441;29;20396;-55
2023/10/16 18:25:51;;;;;;;89.22;5.22;;;;;;;;;;4902343;29;20098;-56
2023/10/16 18:28:17;;;;;;;172.20;7.95;;;;;;;;;;4903330;29;20022;-57
2023/10/16 18:30:44;;;;;;;156.25;7.82;;;;;;;;;;4902105;29;20048;-57
2023/10/16 18:33:09;;;;;;;155.55;7.68;;;;;;;;;;4903772;29;20028;-60
2023/10/16 18:35:38;;;;;;;261.80;12.13;;;;;;;;;;4901048;29;20055;-60
2023/10/16 18:38:03;;;;;;;199.45;8.93;;;;;;;;;;4902353;29;20051;-59
2023/10/16 18:40:33;;;;;;;256.45;11.88;;;;;;;;;;4900985;29;20559;-59
2023/10/16 18:42:58;;;;;;;140.02;7.22;;;;;;;;;;4901815;29;20020;-58
2023/10/16 18:45:25;;;;;;;203.57;9.70;;;;;;;;;;4900904;29;20067;-59
2023/10/16 18:47:50;;;;;;;124.63;6.38;;;;;;;;;;4901774;29;20031;-58
2023/10/16 18:50:15;;;;;;;94.82;5.43;;;;;;;;;;4902087;29;20032;-59
2023/10/16 18:52:41;;;;;;;90.35;5.55;;;;;;;;;;4902149;29;20016;-56
2023/10/16 18:55:07;;;;;;;126.18;6.13;;;;;;;;;;4899938;28;20020;-57
2023/10/16 18:57:33;;;;;;;277.65;11.48;;;;;;;;;;4900513;29;20039;-57
2023/10/16 18:59:59;;;;;;;145.82;6.68;;;;;;;;;;4902711;29;20032;-58
2023/10/16 19:02:24;;;;;;;221.00;9.55;;;;;;;;;;4899408;29;20515;-59
2023/10/16 19:04:50;;;;;;;170.70;7.63;;;;;;;;;;4901485;29;20028;-58
2023/10/16 19:07:15;;;;;;;150.13;7.05;;;;;;;;;;4902186;29;20039;-58
2023/10/16 19:09:40;;;;;;;198.52;8.45;;;;;;;;;;4901882;29;20188;-57
2023/10/16 19:12:08;;;;;;;190.95;8.65;;;;;;;;;;4901254;29;20035;-57
2023/10/16 19:14:33;;;;;;;218.93;10.15;;;;;;;;;;4899558;29;20016;-56
2023/10/16 19:16:59;;;;;;;125.68;6.20;;;;;;;;;;4901198;29;20408;-58
2023/10/16 19:19:25;;;;;;;165.02;7.63;;;;;;;;;;4900108;29;20078;-58
2023/10/16 19:21:50;;;;;;;97.25;5.30;;;;;;;;;;4901027;29;20039;-59
2023/10/16 19:24:17;;;;;;;153.55;7.20;;;;;;;;;;4900151;29;20035;-58
2023/10/16 19:26:44;;;;;;;184.52;8.07;;;;;;;;;;4891026;29;20037;-57
2023/10/16 19:29:10;;;;;;;156.60;7.10;;;;;;;;;;4902374;29;20066;-59
2023/10/16 19:31:35;;;;;;;296.02;12.55;;;;;;;;;;4899832;29;20052;-58
2023/10/16 19:34:01;;;;;;;193.68;8.05;;;;;;;;;;4901048;29;20158;-57
2023/10/16 19:36:26;;;;;;;225.27;9.80;;;;;;;;;;4898460;29;20401;-57
2023/10/16 19:38:51;;;;;;;157.13;7.40;;;;;;;;;;4900710;29;20035;-58
2023/10/16 19:41:18;;;;;;;128.90;6.25;;;;;;;;;;4900260;29;20131;-58
2023/10/16 19:43:44;;;;;;;113.05;6.50;;;;;;;;;;4899821;29;20020;-59
2023/10/16 19:46:12;;;;;;;108.07;6.03;;;;;;;;;;4900679;29;20032;-58
2023/10/16 19:48:37;;;;;;;199.48;9.40;;;;;;;;;;4900334;29;20036;-57
2023/10/16 19:51:03;;;;;;;145.00;7.28;;;;;;;;;;4900455;29;20039;-56
2023/10/16 19:53:30;;;;;;;205.75;9.48;;;;;;;;;;4900068;29;20954;-57
2023/10/16 19:55:55;;;;;;;124.13;6.38;;;;;;;;;;4898451;29;20033;-56
2023/10/16 19:58:21;;;;;;;164.82;7.85;;;;;;;;;;4899111;29;20043;-57
2023/10/16 20:00:46;;;;;;;184.70;8.23;;;;;;;;;;4898500;29;20043;-56
2023/10/16 20:03:15;;;;;;;132.98;6.57;;;;;;;;;;4901034;29;20023;-56
2023/10/16 20:05:40;;;;;;;299.35;12.73;;;;;;;;;;4897895;29;20112;-56
2023/10/16 20:08:06;;;;;;;137.13;7.03;;;;;;;;;;4901733;29;20111;-55
2023/10/16 20:10:36;;;;;;;121.18;6.95;;;;;;;;;;4900521;29;20660;-57
2023/10/16 20:13:03;;;;;;;132.02;6.97;;;;;;;;;;4900950;29;20047;-55
2023/10/16 20:15:29;;;;;;;211.60;9.75;;;;;;;;;;4899258;29;20509;-54
2023/10/16 20:17:55;;;;;;;149.98;7.32;;;;;;;;;;4900476;29;20088;-57
2023/10/16 20:20:23;;;;;;;156.48;7.57;;;;;;;;;;4899546;29;20024;-57
2023/10/16 20:22:49;;;;;;;151.07;6.90;;;;;;;;;;4898968;29;20405;-57
2023/10/16 20:25:15;;;;;;;126.95;6.97;;;;;;;;;;4899804;29;20032;-57
2023/10/16 20:27:40;;;;;;;241.55;9.82;;;;;;;;;;4899370;29;20917;-57
2023/10/16 20:30:07;;;;;;;135.45;6.50;;;;;;;;;;4901052;29;20024;-57
2023/10/16 20:32:32;;;;;;;168.40;8.35;;;;;;;;;;4897971;29;20037;-57
2023/10/16 20:34:58;;;;;;;120.78;6.07;;;;;;;;;;4898718;29;20083;-57
2023/10/16 20:37:23;;;;;;;63.90;4.72;;;;;;;;;;4900939;29;20040;-56
2023/10/16 20:39:51;;;;;;;109.47;5.78;;;;;;;;;;4897888;29;20035;-56
2023/10/16 20:42:17;;;;;;;151.35;7.05;;;;;;;;;;4899792;29;20044;-57
2023/10/16 20:44:42;;;;;;;214.23;8.55;;;;;;;;;;4899165;29;20403;-57
2023/10/16 20:47:09;;;;;;;183.70;7.47;;;;;;;;;;4902421;29;20407;-57
2023/10/16 20:49:35;;;;;;;305.13;12.55;;;;;;;;;;4902533;29;20268;-58
2023/10/16 20:52:00;;;;;;;152.68;7.45;;;;;;;;;;4903844;29;20439;-57
2023/10/16 20:54:26;;;;;;;149.00;6.85;;;;;;;;;;4904193;29;20044;-57
2023/10/16 20:56:51;;;;;;;172.70;8.52;;;;;;;;;;4902479;29;20558;-57
2023/10/16 20:59:16;;;;;;;115.18;8.50;;;;;;;;;;4904168;29;20024;-58
2023/10/16 21:01:43;;;;;;;256.33;15.10;;;;;;;;;;4900387;29;20045;-58
2023/10/16 21:04:10;;;;;;;122.68;9.45;;;;;;;;;;4903345;29;20012;-58
2023/10/16 21:06:35;;;;;;;221.85;14.55;;;;;;;;;;4901851;29;20095;-56
2023/10/16 21:09:01;;;;;;;170.35;13.20;;;;;;;;;;4903228;29;20036;-57
2023/10/16 21:11:26;;;;;;;86.35;9.38;;;;;;;;;;4906245;29;20421;-57
2023/10/16 21:13:51;;;;;;;122.23;8.43;;;;;;;;;;4905043;29;20032;-57
2023/10/16 21:16:17;;;;;;;144.83;8.30;;;;;;;;;;4904888;29;20280;-57
2023/10/16 21:18:42;;;;;;;205.80;10.10;;;;;;;;;;4903810;29;20405;-56
2023/10/16 21:21:11;;;;;;;82.57;7.18;;;;;;;;;;4904596;29;20276;-57
2023/10/16 21:23:36;;;;;;;274.58;13.57;;;;;;;;;;4904099;29;20091;-55
2023/10/16 21:26:11;;;;;;;81.70;6.75;;;;;;;;;;4903322;29;20032;-56
2023/10/16 21:28:37;;;;;;;204.68;11.20;;;;;;;;;;4906290;29;20575;-56
2023/10/16 21:31:02;;;;;;;149.27;9.30;;;;;;;;;;4904602;29;20040;-56
2023/10/16 21:33:27;;;;;;;88.10;7.80;;;;;;;;;;4906345;29;20798;-55
2023/10/16 21:36:00;;;;;;;132.57;8.00;;;;;;;;;;4900452;29;20095;-55
2023/10/16 21:38:25;;;;;;;73.97;6.32;;;;;;;;;;4906078;29;20303;-57
2023/10/16 21:40:57;;;;;;;92.87;6.23;;;;;;;;;;4903834;29;20071;-57
2023/10/16 21:43:24;;;;;;;120.03;7.72;;;;;;;;;;4906198;29;20273;-57
2023/10/16 21:45:50;;;;;;;119.82;7.43;;;;;;;;;;4901396;29;20049;-57
2023/10/16 21:48:15;;;;;;;146.73;7.80;;;;;;;;;;4905143;29;20107;-56
2023/10/16 21:50:40;;;;;;;233.03;11.67;;;;;;;;;;4901789;29;20497;-56
2023/10/16 21:53:06;;;;;;;135.20;7.70;;;;;;;;;;4902910;29;20891;-57
2023/10/16 21:55:31;;;;;;;149.75;8.18;;;;;;;;;;4901651;29;20044;-55
2023/10/16 21:57:56;;;;;;;139.45;7.60;;;;;;;;;;4903859;29;20020;-57
2023/10/16 22:00:30;;;;;;;99.40;6.65;;;;;;;;;;4904214;29;20107;-56
2023/10/16 22:02:55;;;;;;;143.75;8.55;;;;;;;;;;4903317;29;20029;-55
2023/10/16 22:05:21;;;;;;;91.95;6.38;;;;;;;;;;4906567;29;20016;-56
2023/10/16 22:07:46;;;;;;;212.13;10.18;;;;;;;;;;4904016;29;20032;-54
2023/10/16 22:10:13;;;;;;;157.35;7.90;;;;;;;;;;4904781;29;20028;-55
2023/10/16 22:12:40;;;;;;;189.13;10.25;;;;;;;;;;4904357;29;20119;-54
2023/10/16 22:15:10;;;;;;;89.33;7.37;;;;;;;;;;4905629;29;20040;-55
2023/10/16 22:17:35;;;;;;;161.35;9.40;;;;;;;;;;4903912;29;20272;-56
2023/10/16 22:20:00;;;;;;;80.60;6.60;;;;;;;;;;4905953;29;20024;-57
2023/10/16 22:22:26;;;;;;;110.95;6.82;;;;;;;;;;4904847;29;20028;-55
2023/10/16 22:24:51;;;;;;;119.10;7.60;;;;;;;;;;4904100;29;20032;-56
2023/10/16 22:27:17;;;;;;;94.23;6.17;;;;;;;;;;4906098;29;20277;-54
2023/10/16 22:29:43;;;;;;;228.60;10.32;;;;;;;;;;4904305;29;20657;-56
2023/10/16 22:32:08;;;;;;;162.30;8.23;;;;;;;;;;4904343;29;20693;-54
2023/10/16 22:34:35;;;;;;;140.57;7.20;;;;;;;;;;4902259;29;20186;-55
2023/10/16 22:37:00;;;;;;;177.60;8.10;;;;;;;;;;4901925;29;20111;-56
2023/10/16 22:39:27;;;;;;;156.65;7.63;;;;;;;;;;4901749;29;20171;-55
2023/10/16 22:41:58;;;;;;;132.98;7.40;;;;;;;;;;4899046;29;20038;-55